createdAt,value
2019-03-08T00:00:08.058Z,99704.55
2019-03-08T00:02:37.244Z,99718.36
2019-03-08T00:05:06.445Z,99727.93
2019-03-08T00:07:35.736Z,99726.66
2019-03-08T00:10:05.300Z,99731.73
2019-03-08T00:12:34.382Z,99738.80
2019-03-08T00:15:03.548Z,99753.47
2019-03-08T00:17:32.574Z,99756.35
2019-03-08T00:20:01.720Z,99756.35
2019-03-08T00:22:30.877Z,99779.01
2019-03-08T00:24:59.867Z,99773.88
2019-03-08T00:27:28.942Z,99783.95
2019-03-08T00:29:57.979Z,99795.81
2019-03-08T00:32:27.055Z,99795.81
2019-03-08T00:34:56.141Z,99792.92
2019-03-08T00:37:25.154Z,99791.34
2019-03-08T00:39:54.209Z,99800.44
2019-03-08T00:42:23.256Z,99802.53
2019-03-08T00:44:52.264Z,99802.53
2019-03-08T00:47:21.419Z,99821.48
2019-03-08T00:49:50.544Z,99806.72
2019-03-08T00:52:19.623Z,99823.95
2019-03-08T00:54:48.693Z,99823.95
2019-03-08T00:57:17.745Z,99829.73
2019-03-08T00:59:46.879Z,99833.81
2019-03-08T01:02:15.961Z,99835.24
2019-03-08T01:04:46.019Z,99844.53
2019-03-08T01:07:15.190Z,99844.53
2019-03-08T01:09:44.253Z,99869.19
2019-03-08T01:12:13.328Z,99869.19
2019-03-08T01:14:42.555Z,99885.38
2019-03-08T01:17:11.641Z,99885.38
2019-03-08T01:19:40.621Z,99898.31
2019-03-08T01:22:09.647Z,99898.31
2019-03-08T01:24:41.602Z,99904.88
2019-03-08T01:27:10.743Z,99904.88
2019-03-08T01:29:42.855Z,99918.53
2019-03-08T01:32:12.267Z,99921.41
2019-03-08T01:34:41.361Z,99923.18
2019-03-08T01:37:10.865Z,99923.18
2019-03-08T01:39:39.931Z,99934.34
2019-03-08T01:42:09.306Z,99934.34
2019-03-08T01:44:38.327Z,99944.83
2019-03-08T01:47:07.436Z,99944.83
2019-03-08T01:49:36.587Z,99960.53
2019-03-08T01:52:06.805Z,99961.35
2019-03-08T01:54:35.828Z,99963.94
2019-03-08T01:57:04.991Z,99963.94
2019-03-08T01:59:34.452Z,99977.06
2019-03-08T02:02:03.533Z,99977.06
2019-03-08T02:04:32.891Z,99979.94
2019-03-08T02:07:02.007Z,99989.02
2019-03-08T02:09:31.024Z,99989.02
2019-03-08T02:12:00.139Z,99996.05
2019-03-08T02:14:29.358Z,99991.17
2019-03-08T02:16:58.519Z,100011.70
2019-03-08T02:19:27.611Z,100011.70
2019-03-08T02:21:56.599Z,100012.23
2019-03-08T02:24:25.595Z,100032.67
2019-03-08T02:26:54.604Z,100030.37
2019-03-08T02:29:23.610Z,100030.61
2019-03-08T02:31:52.704Z,100030.61
2019-03-08T02:34:21.686Z,100036.39
2019-03-08T02:36:50.754Z,100039.36
2019-03-08T02:39:19.773Z,100047.09
2019-03-08T02:41:48.902Z,100047.09
2019-03-08T02:44:17.870Z,100043.55
2019-03-08T02:46:46.995Z,100040.13
2019-03-08T02:49:17.619Z,100057.20
2019-03-08T02:51:46.911Z,100064.75
2019-03-08T02:54:16.096Z,100064.75
2019-03-08T02:56:45.198Z,100073.34
2019-03-08T02:59:16.498Z,100081.92
2019-03-08T03:01:45.625Z,100091.33
2019-03-08T03:04:14.759Z,100105.48
2019-03-08T03:06:45.354Z,100097.44
2019-03-08T03:09:14.605Z,100100.63
2019-03-08T03:11:43.642Z,100107.55
2019-03-08T03:14:12.633Z,100117.64
2019-03-08T03:16:41.765Z,100117.64
2019-03-08T03:19:10.773Z,100121.53
2019-03-08T03:21:39.799Z,100130.85
2019-03-08T03:24:08.828Z,100130.85
2019-03-08T03:26:37.977Z,100145.86
2019-03-08T03:29:07.280Z,100145.86
2019-03-08T03:31:36.290Z,100158.45
2019-03-08T03:34:05.352Z,100158.38
2019-03-08T03:36:34.363Z,100178.95
2019-03-08T03:39:04.868Z,100178.95
2019-03-08T03:41:34.141Z,100177.19
2019-03-08T03:44:03.455Z,100177.19
2019-03-08T03:46:32.574Z,100183.80
2019-03-08T03:49:01.671Z,100195.30
2019-03-08T03:51:30.968Z,100208.72
2019-03-08T03:53:59.963Z,100209.63
2019-03-08T03:56:29.046Z,100209.63
2019-03-08T03:58:58.202Z,100217.90
2019-03-08T04:01:31.265Z,100227.22
2019-03-08T04:04:00.389Z,100227.22
2019-03-08T04:06:29.496Z,100234.73
2019-03-08T04:09:17.667Z,100239.75
2019-03-08T04:11:46.952Z,100245.66
2019-03-08T04:14:15.950Z,100246.14
2019-03-08T04:16:45.162Z,100246.14
2019-03-08T04:19:14.284Z,100262.13
2019-03-08T04:21:43.299Z,100263.98
2019-03-08T04:24:12.380Z,100260.87
2019-03-08T04:26:41.371Z,100276.52
2019-03-08T04:29:10.559Z,100276.52
2019-03-08T04:31:39.563Z,100275.59
2019-03-08T04:34:08.592Z,100297.84
2019-03-08T04:36:37.605Z,100297.84
2019-03-08T04:39:08.800Z,100300.70
2019-03-08T04:41:37.816Z,100307.34
2019-03-08T04:44:09.028Z,100307.34
2019-03-08T04:46:38.069Z,100313.59
2019-03-08T04:49:08.225Z,100324.19
2019-03-08T04:51:37.320Z,100331.71
2019-03-08T04:54:06.344Z,100331.71
2019-03-08T04:56:35.370Z,100340.88
2019-03-08T04:59:04.449Z,100363.84
2019-03-08T05:01:33.587Z,100363.84
2019-03-08T05:04:02.652Z,100365.91
2019-03-08T05:06:31.689Z,100367.53
2019-03-08T05:09:01.439Z,100367.53
2019-03-08T05:11:30.614Z,100383.25
2019-03-08T05:13:59.734Z,100383.25
2019-03-08T05:16:29.201Z,100387.36
2019-03-08T05:18:58.196Z,100387.36
2019-03-08T05:21:27.258Z,100407.26
2019-03-08T05:23:56.354Z,100411.25
2019-03-08T05:26:25.541Z,100411.25
2019-03-08T05:28:54.707Z,100424.75
2019-03-08T05:31:23.679Z,100424.75
2019-03-08T05:33:52.756Z,100445.84
2019-03-08T05:36:21.743Z,100451.38
2019-03-08T05:38:50.736Z,100459.20
2019-03-08T05:41:19.811Z,100464.88
2019-03-08T05:43:48.910Z,100464.88
2019-03-08T05:46:18.030Z,100486.83
2019-03-08T05:48:50.206Z,100494.95
2019-03-08T05:51:19.247Z,100494.95
2019-03-08T05:53:48.265Z,100508.53
2019-03-08T05:56:17.252Z,100508.53
2019-03-08T05:58:46.316Z,100525.34
2019-03-08T06:01:15.386Z,100530.92
2019-03-08T06:03:44.348Z,100544.23
2019-03-08T06:06:13.399Z,100549.25
2019-03-08T06:08:42.394Z,100549.25
2019-03-08T06:11:11.401Z,100565.66
2019-03-08T06:13:40.486Z,100565.66
2019-03-08T06:16:09.556Z,100570.02
2019-03-08T06:18:38.582Z,100589.67
2019-03-08T06:21:07.563Z,100586.19
2019-03-08T06:23:36.577Z,100586.19
2019-03-08T06:26:05.661Z,100600.64
2019-03-08T06:28:34.670Z,100609.25
2019-03-08T06:31:05.233Z,100618.62
2019-03-08T06:33:34.253Z,100618.62
2019-03-08T06:36:03.309Z,100635.36
2019-03-08T06:38:32.333Z,100635.36
2019-03-08T06:41:01.489Z,100643.11
2019-03-08T06:43:30.584Z,100641.59
2019-03-08T06:45:59.554Z,100647.92
2019-03-08T06:48:28.541Z,100647.92
2019-03-08T06:50:57.526Z,100656.08
2019-03-08T06:53:26.519Z,100666.17
2019-03-08T06:55:55.528Z,100677.44
2019-03-08T06:58:33.774Z,100687.10
2019-03-08T07:01:11.298Z,100687.10
2019-03-08T07:03:41.620Z,100696.84
2019-03-08T07:06:10.705Z,100697.06
2019-03-08T07:08:39.836Z,100706.55
2019-03-08T07:11:08.861Z,100711.44
2019-03-08T07:13:37.886Z,100718.14
2019-03-08T07:16:13.083Z,100718.90
2019-03-08T07:18:37.630Z,100715.86
2019-03-08T07:21:43.882Z,100723.14
2019-03-08T07:24:25.270Z,100723.14
2019-03-08T07:27:12.473Z,100745.67
2019-03-08T07:29:51.784Z,100753.97
2019-03-08T07:32:46.348Z,100753.97
2019-03-08T07:35:35.093Z,100766.31
2019-03-08T07:38:21.286Z,100769.91
2019-03-08T07:41:00.119Z,100780.27
2019-03-08T07:43:48.115Z,100799.30
2019-03-08T07:46:40.463Z,100800.20
2019-03-08T07:49:32.908Z,100800.20
2019-03-08T07:52:17.465Z,100817.74
2019-03-08T07:54:57.820Z,100832.45
2019-03-08T07:57:45.786Z,100832.45
2019-03-08T08:00:27.121Z,100827.52
2019-03-08T08:03:23.075Z,100841.99
2019-03-08T08:05:59.892Z,100841.99
2019-03-08T08:08:51.693Z,100853.45
2019-03-08T08:11:35.162Z,100854.50
2019-03-08T08:14:22.077Z,100854.50
2019-03-08T08:16:57.459Z,100882.47
2019-03-08T08:19:57.371Z,100882.47
2019-03-08T08:22:44.045Z,100888.43
2019-03-08T08:25:41.448Z,100889.77
2019-03-08T08:28:28.062Z,100896.48
2019-03-08T08:31:23.895Z,100896.48
2019-03-08T08:34:17.759Z,100904.68
2019-03-08T08:36:54.830Z,100918.31
2019-03-08T08:39:41.069Z,100925.60
2019-03-08T08:42:38.132Z,100923.34
2019-03-08T08:45:31.666Z,100925.69
2019-03-08T08:48:20.196Z,100932.37
2019-03-08T08:51:20.193Z,100937.11
2019-03-08T08:53:57.427Z,100937.11
2019-03-08T08:56:39.082Z,100955.64
2019-03-08T08:59:22.632Z,100955.64
2019-03-08T09:02:13.735Z,100966.52
2019-03-08T09:05:07.635Z,100969.98
2019-03-08T09:07:58.119Z,100971.72
2019-03-08T09:10:45.286Z,100973.75
2019-03-08T09:13:29.561Z,100983.55
2019-03-08T09:16:20.705Z,100982.69
2019-03-08T09:18:59.344Z,100986.76
2019-03-08T09:21:44.687Z,100985.55
2019-03-08T09:24:31.293Z,100991.09
2019-03-08T09:27:15.880Z,100991.09
2019-03-08T09:29:56.564Z,101006.34
2019-03-08T09:32:44.090Z,101005.79
2019-03-08T09:35:32.522Z,101011.95
2019-03-08T09:38:10.947Z,101026.03
2019-03-08T09:41:08.592Z,101026.03
2019-03-08T09:44:00.935Z,101025.72
2019-03-08T09:46:44.093Z,101025.72
2019-03-08T09:49:30.870Z,101038.83
2019-03-08T09:52:18.857Z,101051.03
2019-03-08T09:55:13.119Z,101051.03
2019-03-08T09:58:07.095Z,101054.13
2019-03-08T10:01:01.679Z,101067.50
2019-03-08T10:03:52.659Z,101072.61
2019-03-08T10:06:43.738Z,101072.61
2019-03-08T10:09:24.065Z,101078.75
2019-03-08T10:11:59.820Z,101084.38
2019-03-08T10:14:56.972Z,101079.53
2019-03-08T10:17:47.678Z,101079.53
2019-03-08T10:20:27.090Z,101081.45
2019-03-08T10:23:19.860Z,101088.19
2019-03-08T10:25:57.928Z,101089.39
2019-03-08T10:28:33.546Z,101082.30
2019-03-08T10:31:15.658Z,101089.42
2019-03-08T10:34:02.312Z,101088.05
2019-03-08T10:36:48.203Z,101101.38
2019-03-08T10:39:23.958Z,101103.16
2019-03-08T10:42:14.780Z,101103.16
2019-03-08T10:44:59.972Z,101107.42
2019-03-08T10:47:56.019Z,101104.72
2019-03-08T10:50:31.765Z,101104.72
2019-03-08T10:53:19.851Z,101105.45
2019-03-08T10:56:06.998Z,101104.06
2019-03-08T10:58:55.274Z,101108.94
2019-03-08T11:01:50.891Z,101108.94
2019-03-08T11:04:34.646Z,101116.23
2019-03-08T11:07:21.375Z,101136.50
2019-03-08T11:10:12.467Z,101136.50
2019-03-08T11:13:12.387Z,101144.93
2019-03-08T11:16:09.660Z,101144.93
2019-03-08T11:18:54.333Z,101137.11
2019-03-08T11:21:42.587Z,101140.84
2019-03-08T11:24:36.455Z,101143.98
2019-03-08T11:27:25.042Z,101143.98
2019-03-08T11:30:16.550Z,101148.34
2019-03-08T11:32:53.990Z,101148.34
2019-03-08T11:35:30.729Z,101161.85
2019-03-08T11:38:20.213Z,101150.43
2019-03-08T11:41:04.072Z,101156.59
2019-03-08T11:43:56.405Z,101167.51
2019-03-08T11:46:32.775Z,101165.37
2019-03-08T11:49:20.516Z,101161.18
2019-03-08T11:52:05.060Z,101169.53
2019-03-08T11:54:59.359Z,101169.64
2019-03-08T11:57:46.820Z,101158.34
2019-03-08T12:00:31.244Z,101172.41
2019-03-08T12:03:38.752Z,101176.80
2019-03-08T12:06:20.834Z,101176.80
2019-03-08T12:09:11.658Z,101167.19
2019-03-08T12:11:58.966Z,101167.19
2019-03-08T12:14:39.208Z,101171.80
2019-03-08T12:17:18.964Z,101189.63
2019-03-08T12:19:56.566Z,101172.32
2019-03-08T12:22:44.668Z,101170.90
2019-03-08T12:25:44.828Z,101178.38
2019-03-08T12:28:47.831Z,101176.50
2019-03-08T12:31:48.171Z,101176.50
2019-03-08T12:34:25.188Z,101165.91
2019-03-08T12:37:16.241Z,101177.23
2019-03-08T12:39:53.675Z,101177.27
2019-03-08T12:42:40.486Z,101170.55
2019-03-08T12:45:44.065Z,101169.68
2019-03-08T12:48:23.905Z,101169.20
2019-03-08T12:51:13.110Z,101166.76
2019-03-08T12:54:00.108Z,101162.97
2019-03-08T12:56:57.376Z,101164.77
2019-03-08T12:59:37.609Z,101159.28
2019-03-08T13:02:25.562Z,101161.89
2019-03-08T13:05:19.819Z,101157.20
2019-03-08T13:07:55.788Z,101154.67
2019-03-08T13:10:24.832Z,101157.96
2019-03-08T13:12:53.890Z,101145.33
2019-03-08T13:15:23.043Z,101145.33
2019-03-08T13:17:52.124Z,101175.10
2019-03-08T13:20:21.198Z,101164.69
2019-03-08T13:22:50.212Z,101162.80
2019-03-08T13:25:19.368Z,101162.80
2019-03-08T13:27:48.340Z,101150.19
2019-03-08T13:30:19.510Z,101156.57
2019-03-08T13:32:48.651Z,101171.56
2019-03-08T13:35:17.639Z,101145.07
2019-03-08T13:37:46.640Z,101153.88
2019-03-08T13:40:16.291Z,101160.30
2019-03-08T13:42:45.472Z,101159.23
2019-03-08T13:45:16.161Z,101154.05
2019-03-08T13:47:45.289Z,101158.91
2019-03-08T13:50:14.700Z,101164.67
2019-03-08T13:52:44.081Z,101158.61
2019-03-08T13:55:13.322Z,101173.46
2019-03-08T13:57:42.387Z,101168.17
2019-03-08T14:00:14.108Z,101168.17
2019-03-08T14:02:43.212Z,101176.75
2019-03-08T14:05:12.539Z,101175.77
2019-03-08T14:07:41.638Z,101175.60
2019-03-08T14:10:13.023Z,101175.60
2019-03-08T14:12:42.054Z,101177.69
2019-03-08T14:15:11.984Z,101174.62
2019-03-08T14:17:41.058Z,101170.63
2019-03-08T14:20:19.005Z,101172.69
2019-03-08T14:22:48.087Z,101178.51
2019-03-08T14:25:17.161Z,101169.39
2019-03-08T14:27:46.297Z,101169.39
2019-03-08T14:30:17.035Z,101180.09
2019-03-08T14:32:46.539Z,101172.09
2019-03-08T14:35:15.711Z,101172.09
2019-03-08T14:37:44.875Z,101171.63
2019-03-08T14:40:39.859Z,101172.63
2019-03-08T14:43:26.368Z,101168.69
2019-03-08T14:46:17.257Z,101164.89
2019-03-08T14:48:46.399Z,101171.39
2019-03-08T14:51:15.819Z,101171.39
2019-03-08T14:53:44.830Z,101175.20
2019-03-08T14:56:13.813Z,101175.20
2019-03-08T14:58:42.920Z,101163.70
2019-03-08T15:01:12.335Z,101163.19
2019-03-08T15:03:43.844Z,101158.67
2019-03-08T15:06:12.091Z,101158.67
2019-03-08T15:08:41.131Z,101169.73
2019-03-08T15:11:10.154Z,101167.34
2019-03-08T15:13:39.330Z,101167.34
2019-03-08T15:16:08.412Z,101158.91
2019-03-08T15:18:37.427Z,101158.91
2019-03-08T15:21:06.629Z,101151.48
2019-03-08T15:23:35.772Z,101154.91
2019-03-08T15:26:04.901Z,101156.73
2019-03-08T15:28:33.960Z,101156.73
2019-03-08T15:31:03.033Z,101150.05
2019-03-08T15:33:32.084Z,101150.24
2019-03-08T15:36:01.120Z,101150.24
2019-03-08T15:38:30.693Z,101149.78
2019-03-08T15:41:00.111Z,101156.16
2019-03-08T15:43:29.260Z,101146.60
2019-03-08T15:45:58.358Z,101143.45
2019-03-08T15:48:27.438Z,101130.18
2019-03-08T15:50:56.423Z,101139.41
2019-03-08T15:53:25.875Z,101124.87
2019-03-08T15:55:55.016Z,101124.87
2019-03-08T15:58:24.109Z,101127.38
2019-03-08T16:00:53.577Z,101122.73
2019-03-08T16:03:22.561Z,101122.73
2019-03-08T16:05:52.541Z,101128.02
2019-03-08T16:08:21.543Z,101137.27
2019-03-08T16:10:50.596Z,101140.07
2019-03-08T16:13:19.755Z,101143.90
2019-03-08T16:15:48.884Z,101142.92
2019-03-08T16:18:18.029Z,101142.92
2019-03-08T16:20:47.115Z,101147.65
2019-03-08T16:23:16.080Z,101155.08
2019-03-08T16:25:47.918Z,101155.08
2019-03-08T16:28:15.862Z,101152.95
2019-03-08T16:30:47.405Z,101152.30
2019-03-08T16:33:23.812Z,101152.30
2019-03-08T16:36:02.342Z,101153.45
2019-03-08T16:38:50.159Z,101148.97
2019-03-08T16:41:28.161Z,101155.37
2019-03-08T16:44:13.330Z,101159.95
2019-03-08T16:47:12.376Z,101148.02
2019-03-08T16:49:59.886Z,101154.83
2019-03-08T16:52:48.203Z,101157.72
2019-03-08T16:55:33.281Z,101156.11
2019-03-08T16:58:21.694Z,101149.39
2019-03-08T17:01:05.413Z,101147.95
2019-03-08T17:03:43.620Z,101144.70
2019-03-08T17:06:29.403Z,101142.18
2019-03-08T17:09:21.077Z,101137.02
2019-03-08T17:11:57.139Z,101137.02
2019-03-08T17:14:47.859Z,101148.31
2019-03-08T17:17:34.902Z,101140.61
2019-03-08T17:20:38.393Z,101151.48
2019-03-08T17:23:25.108Z,101139.09
2019-03-08T17:26:08.282Z,101139.09
2019-03-08T17:28:55.199Z,101130.35
2019-03-08T17:31:41.438Z,101129.03
2019-03-08T17:34:38.393Z,101131.77
2019-03-08T17:37:14.161Z,101131.77
2019-03-08T17:40:05.083Z,101140.64
2019-03-08T17:42:53.076Z,101140.64
2019-03-08T17:45:29.362Z,101126.17
2019-03-08T17:48:17.319Z,101122.78
2019-03-08T17:51:03.882Z,101125.45
2019-03-08T17:53:50.502Z,101117.06
2019-03-08T17:56:39.768Z,101117.06
2019-03-08T17:59:27.183Z,101117.50
2019-03-08T18:02:15.217Z,101108.78
2019-03-08T18:04:50.774Z,101111.87
2019-03-08T18:07:37.338Z,101103.75
2019-03-08T18:10:23.263Z,101100.30
2019-03-08T18:13:09.758Z,101102.09
2019-03-08T18:16:13.000Z,101094.56
2019-03-08T18:19:04.814Z,101094.56
2019-03-08T18:21:41.831Z,101096.83
2019-03-08T18:24:41.905Z,101096.83
2019-03-08T18:27:39.877Z,101091.47
2019-03-08T18:30:27.941Z,101087.21
2019-03-08T18:33:22.132Z,101086.08
2019-03-08T18:36:10.108Z,101073.58
2019-03-08T18:39:01.156Z,101077.60
2019-03-08T18:42:07.229Z,101070.84
2019-03-08T18:44:57.556Z,101063.87
2019-03-08T18:47:45.171Z,101065.27
2019-03-08T18:50:33.300Z,101065.27
2019-03-08T18:53:24.132Z,101069.05
2019-03-08T18:56:12.076Z,101069.23
2019-03-08T18:58:58.642Z,101067.98
2019-03-08T19:01:36.761Z,101070.91
2019-03-08T19:04:40.313Z,101066.63
2019-03-08T19:07:46.232Z,101059.78
2019-03-08T19:10:28.068Z,101048.22
2019-03-08T19:13:14.952Z,101050.39
2019-03-08T19:16:02.905Z,101050.39
2019-03-08T19:18:46.635Z,101040.98
2019-03-08T19:21:27.500Z,101039.54
2019-03-08T19:24:14.010Z,101032.55
2019-03-08T19:27:07.237Z,101032.55
2019-03-08T19:30:01.104Z,101028.09
2019-03-08T19:32:51.855Z,101031.31
2019-03-08T19:35:39.012Z,101021.61
2019-03-08T19:38:23.643Z,101005.44
2019-03-08T19:40:59.773Z,101008.81
2019-03-08T19:43:37.386Z,101002.38
2019-03-08T19:46:25.096Z,101002.38
2019-03-08T19:49:05.779Z,101001.77
2019-03-08T19:51:47.247Z,101003.84
2019-03-08T19:54:41.319Z,101011.48
2019-03-08T19:57:41.161Z,101011.48
2019-03-08T20:00:22.784Z,100995.09
2019-03-08T20:03:13.974Z,100991.08
2019-03-08T20:05:58.334Z,100987.07
2019-03-08T20:09:01.517Z,100987.27
2019-03-08T20:11:48.266Z,100983.37
2019-03-08T20:14:34.536Z,100983.37
2019-03-08T20:17:25.532Z,100970.69
2019-03-08T20:20:08.344Z,100966.55
2019-03-08T20:22:56.293Z,100959.00
2019-03-08T20:25:43.124Z,100958.41
2019-03-08T20:28:37.121Z,100958.41
2019-03-08T20:31:26.140Z,100961.45
2019-03-08T20:34:03.356Z,100956.13
2019-03-08T20:36:37.639Z,100968.53
2019-03-08T20:39:38.322Z,100953.42
2019-03-08T20:42:16.290Z,100964.97
2019-03-08T20:45:00.466Z,100939.37
2019-03-08T20:47:38.027Z,100971.25
2019-03-08T20:50:09.014Z,100971.12
2019-03-08T20:52:38.069Z,100980.97
2019-03-08T20:55:07.850Z,100984.10
2019-03-08T20:57:36.850Z,100968.84
2019-03-08T21:00:07.172Z,101001.94
2019-03-08T21:02:36.213Z,100985.36
2019-03-08T21:05:05.653Z,100985.36
2019-03-08T21:07:34.783Z,100972.33
2019-03-08T21:10:03.925Z,100946.03
2019-03-08T21:12:33.159Z,100946.03
2019-03-08T21:15:02.517Z,100933.34
2019-03-08T21:17:31.504Z,100933.08
2019-03-08T21:20:00.619Z,100933.08
2019-03-08T21:22:29.767Z,100922.16
2019-03-08T21:24:59.925Z,100904.03
2019-03-08T21:27:29.452Z,100904.03
2019-03-08T21:29:58.522Z,100890.14
2019-03-08T21:32:28.359Z,100866.91
2019-03-08T21:34:58.517Z,100866.91
2019-03-08T21:37:27.526Z,100876.62
2019-03-08T21:39:58.385Z,100871.61
2019-03-08T21:42:27.742Z,100855.12
2019-03-08T21:44:56.746Z,100855.12
2019-03-08T21:47:25.811Z,100846.05
2019-03-08T21:49:54.825Z,100846.05
2019-03-08T21:52:23.791Z,100848.34
2019-03-08T21:54:52.857Z,100832.28
2019-03-08T21:57:21.894Z,100825.79
2019-03-08T21:59:50.871Z,100811.91
2019-03-08T22:02:19.967Z,100811.91
2019-03-08T22:04:54.140Z,100807.36
2019-03-08T22:07:23.199Z,100811.78
2019-03-08T22:10:07.497Z,100811.78
2019-03-08T22:12:36.500Z,100788.17
2019-03-08T22:15:06.027Z,100789.70
2019-03-08T22:17:36.539Z,100789.70
2019-03-08T22:20:06.068Z,100779.80
2019-03-08T22:22:35.063Z,100782.53
2019-03-08T22:25:04.449Z,100778.65
2019-03-08T22:27:33.412Z,100778.65
2019-03-08T22:30:02.596Z,100773.02
2019-03-08T22:32:31.631Z,100760.58
2019-03-08T22:35:00.591Z,100765.48
2019-03-08T22:37:29.576Z,100761.03
2019-03-08T22:39:58.566Z,100752.47
2019-03-08T22:42:27.760Z,100752.47
2019-03-08T22:44:56.759Z,100743.52
2019-03-08T22:47:25.780Z,100731.77
2019-03-08T22:49:54.813Z,100731.77
2019-03-08T22:52:23.885Z,100729.75
2019-03-08T22:54:53.327Z,100726.26
2019-03-08T22:57:22.422Z,100726.26
2019-03-08T22:59:51.686Z,100718.95
2019-03-08T23:02:21.532Z,100718.20
2019-03-08T23:04:50.631Z,100710.03
2019-03-08T23:07:19.824Z,100710.03
2019-03-08T23:09:48.916Z,100698.29
2019-03-08T23:12:17.978Z,100681.48
2019-03-08T23:14:47.243Z,100681.64
2019-03-08T23:17:17.765Z,100680.13
2019-03-08T23:19:48.254Z,100673.79
2019-03-08T23:22:17.262Z,100674.55
2019-03-08T23:24:46.273Z,100670.73
2019-03-08T23:27:29.677Z,100670.73
2019-03-08T23:30:05.512Z,100663.64
2019-03-08T23:32:40.858Z,100653.56
2019-03-08T23:35:09.951Z,100640.16
2019-03-08T23:37:38.943Z,100634.22
2019-03-08T23:40:08.223Z,100635.92
2019-03-08T23:42:37.405Z,100617.84
2019-03-08T23:45:06.586Z,100617.84
2019-03-08T23:47:35.625Z,100619.19
2019-03-08T23:50:05.225Z,100603.84
2019-03-08T23:52:34.254Z,100600.48
2019-03-08T23:55:04.148Z,100599.45
2019-03-08T23:57:33.144Z,100597.63
